Atlantic, Iowa
Current Conditions -  °F | °C
As of 1:15 PM on Thursday 23 Oct 2014 (Local Time) from KAIO Reporting Station
Few Clouds Few Clouds  
Wind Chill: 20°   Ceiling: Unl
Heat Index: 20°   Visibility: 10mi
Dew Point: 14°   Wind: 6mph
Humidity: 68%   Direction: 260°W
Pressure: 30.04"   Gusts: 12mph
Location:  41.4°N, 95.01°W
Report Text: KAIO 231815Z AUTO 26005G10KT 10SM FEW023 20/14 A3004 RMK AO2
Loading
Personal Weather Stations






























Interactive Weather Map
Tropical Storm Tracking
New forecast layout! Learn more

10-Day Weather Forecast

Advertisements
Track Severe Weather on mobile